Time;durP1;ratioP1;P1;durP2;ratioP2;P2;SDS_P1;SDS_P2;PMS_P1;PMS_P2;Temp;Humidity;BMP_temperature;BMP_pressure;BME280_temperature;BME280_humidity;BME280_pressure;Samples;Min_cycle;Max_cycle;Signal;HPM_P1;HPM_P2
2021/10/01 00:00:56;;;;;;;4.50;2.17;;;11.00;99.90;;;;;;5074149;28;20024;-66
2021/10/01 00:03:21;;;;;;;5.13;1.80;;;11.10;99.90;;;;;;5074455;28;20370;-66
2021/10/01 00:05:46;;;;;;;7.07;1.88;;;11.00;99.90;;;;;;5074162;28;20111;-66
2021/10/01 00:08:12;;;;;;;7.60;2.03;;;11.00;99.90;;;;;;5074371;28;20050;-66
2021/10/01 00:10:38;;;;;;;5.38;1.67;;;11.10;99.90;;;;;;5074095;28;20033;-66
2021/10/01 00:13:03;;;;;;;6.45;2.05;;;11.10;99.90;;;;;;5074016;28;20025;-66
2021/10/01 00:15:29;;;;;;;7.63;1.95;;;11.00;99.90;;;;;;5074295;28;20033;-66
2021/10/01 00:17:54;;;;;;;5.38;2.42;;;11.00;99.90;;;;;;5073702;28;20020;-66
2021/10/01 00:20:20;;;;;;;5.85;2.05;;;11.00;99.90;;;;;;5073928;28;20036;-66
2021/10/01 00:22:46;;;;;;;7.90;1.92;;;11.10;99.90;;;;;;5073863;28;20115;-65
2021/10/01 00:25:11;;;;;;;7.78;2.20;;;11.10;99.90;;;;;;5074434;28;20024;-66
2021/10/01 00:27:37;;;;;;;8.27;2.38;;;11.00;99.90;;;;;;5073863;28;20021;-65
2021/10/01 00:30:04;;;;;;;7.60;2.03;;;11.00;99.90;;;;;;5073830;28;20020;-66
2021/10/01 00:32:30;;;;;;;7.57;1.73;;;11.00;99.90;;;;;;5074104;28;20054;-66
2021/10/01 00:34:56;;;;;;;4.55;1.58;;;11.00;99.90;;;;;;5073780;28;20482;-66
2021/10/01 00:37:22;;;;;;;4.68;1.73;;;11.00;99.90;;;;;;5073598;28;20029;-66
2021/10/01 00:39:47;;;;;;;3.55;1.50;;;10.90;99.90;;;;;;5074013;28;20060;-66
2021/10/01 00:42:13;;;;;;;9.20;1.77;;;10.80;99.90;;;;;;5073103;28;20051;-66
2021/10/01 00:44:39;;;;;;;8.15;1.83;;;10.80;99.90;;;;;;5072501;28;20031;-66
2021/10/01 00:47:04;;;;;;;5.45;1.58;;;10.70;99.90;;;;;;5073659;28;20024;-66
2021/10/01 00:49:30;;;;;;;5.32;1.50;;;10.80;99.90;;;;;;5073677;28;20028;-66
2021/10/01 00:51:55;;;;;;;4.38;1.38;;;10.70;99.90;;;;;;5073911;28;20374;-66
2021/10/01 00:54:21;;;;;;;5.88;1.73;;;10.60;99.90;;;;;;5073871;28;20033;-66
2021/10/01 00:56:49;;;;;;;5.50;1.58;;;10.70;99.90;;;;;;5073889;28;20031;-66
2021/10/01 00:59:14;;;;;;;4.70;1.67;;;10.60;99.90;;;;;;5073819;28;20021;-65
2021/10/01 01:01:40;;;;;;;5.15;1.70;;;10.60;99.90;;;;;;5073727;28;20035;-65
2021/10/01 01:04:08;;;;;;;6.78;1.77;;;10.60;99.90;;;;;;5073482;28;20020;-66
2021/10/01 01:06:51;;;;;;;8.63;1.90;;;10.60;99.90;;;;;;5073508;28;20104;-66
2021/10/01 01:09:41;;;;;;;4.97;1.73;;;10.50;99.90;;;;;;5073500;28;20017;-66
2021/10/01 01:12:17;;;;;;;7.00;2.00;;;10.50;99.90;;;;;;5073429;28;20048;-66
2021/10/01 01:14:57;;;;;;;6.63;1.83;;;10.60;99.90;;;;;;5073391;28;20056;-66
2021/10/01 01:17:32;;;;;;;4.32;1.38;;;10.60;99.90;;;;;;5073631;28;20032;-66
2021/10/01 01:20:08;;;;;;;5.57;1.60;;;10.50;99.90;;;;;;5073387;28;20029;-65
2021/10/01 01:22:47;;;;;;;4.47;1.90;;;10.50;99.90;;;;;;5073239;28;20030;-66
2021/10/01 01:25:37;;;;;;;4.15;1.67;;;10.30;99.90;;;;;;5073290;28;20024;-66
2021/10/01 01:28:42;;;;;;;6.75;1.55;;;10.20;99.90;;;;;;5072891;28;20025;-65
2021/10/01 01:31:48;;;;;;;5.03;1.88;;;10.20;99.90;;;;;;5072858;28;20086;-66
2021/10/01 01:34:41;;;;;;;4.72;1.85;;;10.20;99.90;;;;;;5072854;28;20031;-66
2021/10/01 01:37:15;;;;;;;5.57;1.50;;;10.10;99.90;;;;;;5073197;28;20466;-66
2021/10/01 01:39:42;;;;;;;6.45;2.17;;;10.10;99.90;;;;;;5073176;28;20043;-66
2021/10/01 01:42:08;;;;;;;6.45;1.67;;;10.10;99.90;;;;;;5072697;28;20049;-66
2021/10/01 01:44:35;;;;;;;5.95;1.88;;;10.10;99.90;;;;;;5071944;28;20024;-66
2021/10/01 01:47:01;;;;;;;7.43;2.10;;;10.10;99.90;;;;;;5073380;28;20013;-66
2021/10/01 01:49:29;;;;;;;4.40;1.52;;;10.20;99.90;;;;;;5075128;28;20078;-67
2021/10/01 01:51:57;;;;;;;7.50;1.55;;;10.30;99.90;;;;;;5076659;28;20056;-65
2021/10/01 01:54:25;;;;;;;7.00;1.88;;;10.30;99.90;;;;;;5076634;28;20058;-65
2021/10/01 01:56:52;;;;;;;4.68;1.48;;;10.20;99.90;;;;;;5076582;28;20077;-66
2021/10/01 01:59:19;;;;;;;8.90;1.75;;;10.10;99.90;;;;;;5076593;28;20059;-66
2021/10/01 02:01:47;;;;;;;6.63;1.70;;;10.10;99.90;;;;;;5076984;28;20078;-66
2021/10/01 02:04:14;;;;;;;5.70;1.52;;;10.10;99.90;;;;;;5076455;28;20035;-66
2021/10/01 02:06:41;;;;;;;5.95;1.92;;;9.90;99.90;;;;;;5076434;28;20037;-65
2021/10/01 02:09:09;;;;;;;9.00;1.80;;;9.90;99.90;;;;;;5076352;28;20031;-65
2021/10/01 02:11:34;;;;;;;5.25;1.50;;;9.90;99.90;;;;;;5075171;28;20386;-66
2021/10/01 02:14:01;;;;;;;4.68;1.77;;;9.90;99.90;;;;;;5076294;28;20044;-65
2021/10/01 02:16:30;;;;;;;7.07;1.65;;;9.90;99.90;;;;;;5076165;28;20025;-66
2021/10/01 02:18:57;;;;;;;6.72;2.30;;;9.80;99.90;;;;;;5076194;28;20035;-66
2021/10/01 02:21:24;;;;;;;5.93;1.85;;;9.80;99.90;;;;;;5076088;28;20074;-66
2021/10/01 02:23:50;;;;;;;6.65;2.20;;;9.80;99.90;;;;;;5076105;28;20059;-66
2021/10/01 02:26:39;;;;;;;6.13;2.13;;;9.80;99.90;;;;;;5076308;28;20028;-66
2021/10/01 02:29:21;;;;;;;6.50;1.75;;;9.80;99.90;;;;;;5075986;28;20020;-66
2021/10/01 02:32:13;;;;;;;7.60;1.90;;;9.80;99.90;;;;;;5075962;28;20032;-65
2021/10/01 02:34:41;;;;;;;3.10;1.55;;;9.80;99.90;;;;;;5075906;28;20489;-66
2021/10/01 02:37:07;;;;;;;5.28;1.80;;;9.80;99.90;;;;;;5075837;28;20474;-65
2021/10/01 02:39:36;;;;;;;7.82;2.05;;;9.70;99.90;;;;;;5076318;28;20493;-65
2021/10/01 02:42:04;;;;;;;5.38;2.10;;;9.70;99.90;;;;;;5075295;28;20056;-65
2021/10/01 02:44:30;;;;;;;4.60;1.75;;;9.60;99.90;;;;;;5076544;28;20025;-67
2021/10/01 02:46:55;;;;;;;7.35;1.90;;;9.50;99.90;;;;;;5075628;28;20425;-66
2021/10/01 02:49:21;;;;;;;4.80;1.90;;;9.40;99.90;;;;;;5075911;28;20028;-66
2021/10/01 02:51:50;;;;;;;9.23;2.10;;;9.60;99.90;;;;;;5075837;28;20373;-66
2021/10/01 02:54:23;;;;;;;6.35;1.80;;;9.50;99.90;;;;;;5075495;28;20024;-66
2021/10/01 02:56:55;;;;;;;5.97;1.70;;;9.50;99.90;;;;;;5075500;28;20454;-66
2021/10/01 02:59:26;;;;;;;2.42;1.60;;;9.50;99.90;;;;;;5075178;28;20112;-66
2021/10/01 03:01:52;;;;;;;6.15;1.88;;;9.60;99.90;;;;;;5075307;28;20462;-65
2021/10/01 03:04:20;;;;;;;5.32;1.80;;;9.60;99.90;;;;;;5075642;28;20509;-65
2021/10/01 03:06:48;;;;;;;8.25;1.63;;;9.60;99.90;;;;;;5075274;28;20024;-65
2021/10/01 03:09:16;;;;;;;8.38;1.80;;;9.50;99.90;;;;;;5075218;28;20358;-66
2021/10/01 03:11:42;;;;;;;5.60;1.70;;;9.40;99.90;;;;;;5075180;28;20032;-66
2021/10/01 03:14:09;;;;;;;6.30;1.83;;;9.50;99.90;;;;;;5075369;28;20021;-66
2021/10/01 03:16:36;;;;;;;6.28;2.00;;;9.70;99.90;;;;;;5075297;28;20034;-66
2021/10/01 03:19:03;;;;;;;7.40;1.67;;;9.70;99.90;;;;;;5075035;28;20029;-66
2021/10/01 03:21:30;;;;;;;6.40;1.80;;;9.70;99.90;;;;;;5074900;28;20032;-65
2021/10/01 03:23:57;;;;;;;4.07;1.40;;;9.60;99.90;;;;;;5073965;28;20398;-66
2021/10/01 03:26:25;;;;;;;4.25;1.63;;;9.60;99.90;;;;;;5074879;28;20024;-65
2021/10/01 03:28:50;;;;;;;8.38;2.15;;;9.50;99.90;;;;;;5075382;28;20422;-66
2021/10/01 03:31:16;;;;;;;3.85;1.92;;;9.50;99.90;;;;;;5073880;28;20048;-65
2021/10/01 03:33:45;;;;;;;4.63;1.80;;;9.40;99.90;;;;;;5074704;28;20512;-65
2021/10/01 03:36:10;;;;;;;3.40;1.75;;;9.40;99.90;;;;;;5075489;28;20343;-66
2021/10/01 03:38:37;;;;;;;6.75;1.73;;;9.40;99.90;;;;;;5074657;28;20028;-66
2021/10/01 03:41:03;;;;;;;4.53;1.60;;;9.40;99.90;;;;;;5074224;28;20113;-65
2021/10/01 03:43:29;;;;;;;6.32;1.88;;;9.30;99.90;;;;;;5074570;28;20466;-65
2021/10/01 03:45:57;;;;;;;7.18;1.90;;;9.30;99.90;;;;;;5074442;28;20104;-65
2021/10/01 03:48:23;;;;;;;8.15;2.22;;;9.30;99.90;;;;;;5074418;28;20111;-65
2021/10/01 03:50:49;;;;;;;5.03;1.88;;;9.20;99.90;;;;;;5074419;28;20025;-66
2021/10/01 03:53:15;;;;;;;4.65;1.63;;;9.20;99.90;;;;;;5074594;28;20347;-65
2021/10/01 03:55:40;;;;;;;8.75;1.90;;;9.20;99.90;;;;;;5074327;28;20024;-65
2021/10/01 03:58:06;;;;;;;4.03;1.50;;;9.20;99.90;;;;;;5074541;28;20020;-65
2021/10/01 04:00:32;;;;;;;9.48;1.90;;;9.20;99.90;;;;;;5074230;28;20035;-66
2021/10/01 04:02:57;;;;;;;7.10;1.88;;;9.30;99.90;;;;;;5073850;28;20092;-66
2021/10/01 04:05:24;;;;;;;7.47;1.92;;;9.30;99.90;;;;;;5074165;28;20028;-66
2021/10/01 04:07:50;;;;;;;8.88;1.30;;;9.30;99.90;;;;;;5074165;28;20470;-65
2021/10/01 04:10:15;;;;;;;6.50;1.80;;;9.40;99.90;;;;;;5074085;28;20039;-66
2021/10/01 04:12:41;;;;;;;5.32;1.48;;;9.50;99.90;;;;;;5073685;28;20115;-66
2021/10/01 04:15:07;;;;;;;6.22;1.50;;;9.50;99.90;;;;;;5073733;28;20036;-66
2021/10/01 04:17:33;;;;;;;7.30;1.45;;;9.60;99.90;;;;;;5074309;28;20381;-65
2021/10/01 04:19:59;;;;;;;4.85;1.17;;;9.60;99.90;;;;;;5072450;28;20040;-66
2021/10/01 04:22:25;;;;;;;5.03;1.60;;;9.50;99.90;;;;;;5073870;28;20032;-66
2021/10/01 04:24:51;;;;;;;3.60;1.35;;;9.60;99.90;;;;;;5073645;28;20025;-65
2021/10/01 04:27:17;;;;;;;6.22;1.50;;;9.70;99.90;;;;;;5074144;28;20020;-65
2021/10/01 04:29:43;;;;;;;3.03;1.40;;;9.70;99.90;;;;;;5073850;28;20028;-66
2021/10/01 04:32:10;;;;;;;7.07;1.73;;;9.80;99.90;;;;;;5073527;28;20386;-66
2021/10/01 04:34:54;;;;;;;5.00;1.90;;;10.00;99.90;;;;;;5073807;28;20461;-66
2021/10/01 04:37:19;;;;;;;4.43;1.35;;;10.00;99.90;;;;;;5074051;28;20481;-66
2021/10/01 04:39:45;;;;;;;7.38;1.85;;;10.00;99.90;;;;;;5073679;28;20036;-66
2021/10/01 04:42:11;;;;;;;3.30;1.60;;;9.90;99.90;;;;;;5073314;28;20055;-66
2021/10/01 04:44:36;;;;;;;10.00;1.83;;;9.90;99.90;;;;;;5073445;28;20048;-66
2021/10/01 04:47:02;;;;;;;5.15;1.50;;;9.80;99.90;;;;;;5073976;28;20514;-66
2021/10/01 04:49:28;;;;;;;4.70;1.90;;;9.80;99.90;;;;;;5073675;28;20055;-66
2021/10/01 04:51:53;;;;;;;7.45;1.60;;;9.90;99.90;;;;;;5072473;28;20031;-66
2021/10/01 04:54:19;;;;;;;5.18;1.55;;;9.80;99.90;;;;;;5073933;28;20177;-66
2021/10/01 04:56:44;;;;;;;4.97;1.70;;;9.70;99.90;;;;;;5073564;28;20385;-64
2021/10/01 04:59:10;;;;;;;8.77;2.08;;;9.70;99.90;;;;;;5073857;28;20465;-65
2021/10/01 05:01:36;;;;;;;9.02;2.40;;;9.70;99.90;;;;;;5072281;28;20048;-65
2021/10/01 05:04:01;;;;;;;5.32;2.42;;;9.70;99.90;;;;;;5073524;28;20503;-65
2021/10/01 05:06:27;;;;;;;8.82;2.45;;;9.60;99.90;;;;;;5073513;28;20031;-65
2021/10/01 05:08:52;;;;;;;4.85;1.83;;;9.60;99.90;;;;;;5072013;28;20031;-65
2021/10/01 05:11:18;;;;;;;4.28;1.63;;;9.60;99.90;;;;;;5073469;28;20118;-65
2021/10/01 05:13:44;;;;;;;5.78;2.15;;;9.60;99.90;;;;;;5073430;28;20016;-65
2021/10/01 05:16:09;;;;;;;9.02;1.70;;;9.60;99.90;;;;;;5073718;28;20032;-66
2021/10/01 05:18:35;;;;;;;3.85;1.95;;;9.60;99.90;;;;;;5073368;28;20029;-65
2021/10/01 05:21:03;;;;;;;5.65;1.83;;;9.60;99.90;;;;;;5073001;28;20028;-65
2021/10/01 05:23:30;;;;;;;6.00;1.63;;;9.60;99.90;;;;;;5074248;28;20033;-65
2021/10/01 05:25:56;;;;;;;6.22;1.55;;;9.60;99.90;;;;;;5076917;28;20021;-65
2021/10/01 05:28:22;;;;;;;5.40;1.77;;;9.60;99.90;;;;;;5077155;28;20017;-65
2021/10/01 05:30:48;;;;;;;12.07;2.13;;;9.60;99.90;;;;;;5077335;28;20027;-66
2021/10/01 05:33:14;;;;;;;3.97;1.63;;;9.60;99.90;;;;;;5077012;28;20101;-65
2021/10/01 05:35:43;;;;;;;6.55;2.58;;;9.50;99.90;;;;;;5076977;28;20029;-65
2021/10/01 05:38:09;;;;;;;4.72;1.70;;;9.60;99.90;;;;;;5075373;28;20078;-66
2021/10/01 05:40:36;;;;;;;8.15;1.63;;;9.70;99.90;;;;;;5076819;28;20103;-66
2021/10/01 05:43:02;;;;;;;5.25;1.33;;;9.70;99.90;;;;;;5059193;28;20035;-66
2021/10/01 05:45:28;;;;;;;3.10;1.50;;;9.80;99.90;;;;;;5076812;28;20116;-66
2021/10/01 05:47:53;;;;;;;3.38;1.40;;;9.80;99.90;;;;;;5076996;28;20466;-66
2021/10/01 05:50:22;;;;;;;5.55;1.40;;;10.00;99.90;;;;;;5076937;28;20351;-66
2021/10/01 05:55:24;;;;;;;9.05;1.70;;;10.20;99.90;;;;;;5071053;28;20131;-66
2021/10/01 05:57:50;;;;;;;4.13;1.30;;;10.40;99.90;;;;;;5071094;28;20078;-65
2021/10/01 06:00:16;;;;;;;7.68;1.80;;;10.50;99.90;;;;;;5071282;28;20028;-66
2021/10/01 06:02:43;;;;;;;11.02;1.90;;;10.60;99.90;;;;;;5071005;28;20100;-66
2021/10/01 06:05:09;;;;;;;6.57;1.50;;;10.70;99.90;;;;;;5070551;28;20134;-66
2021/10/01 06:07:35;;;;;;;13.38;2.08;;;10.90;99.90;;;;;;5071079;28;20040;-66
2021/10/01 06:10:00;;;;;;;4.15;1.77;;;10.90;99.90;;;;;;5069300;28;20021;-66
2021/10/01 06:12:26;;;;;;;5.60;1.83;;;11.10;99.90;;;;;;5068225;28;20032;-65
2021/10/01 06:14:51;;;;;;;3.65;1.25;;;11.20;99.90;;;;;;5068996;28;20029;-66
2021/10/01 06:17:17;;;;;;;5.82;1.45;;;11.40;99.90;;;;;;5068815;28;20021;-66
2021/10/01 06:19:44;;;;;;;5.75;1.45;;;11.60;99.90;;;;;;5069981;28;20025;-66
2021/10/01 06:22:11;;;;;;;3.67;1.48;;;12.00;99.90;;;;;;5069235;28;20036;-66
2021/10/01 06:24:37;;;;;;;7.60;1.83;;;12.50;99.90;;;;;;5068930;28;20020;-66
2021/10/01 06:27:04;;;;;;;6.57;1.45;;;13.30;99.90;;;;;;5068768;28;20025;-66
2021/10/01 06:29:30;;;;;;;4.95;1.25;;;13.80;99.90;;;;;;5068281;28;20025;-65
2021/10/01 06:31:55;;;;;;;5.70;1.75;;;14.30;99.90;;;;;;5068827;28;20031;-66
2021/10/01 06:34:21;;;;;;;4.07;1.40;;;14.70;99.90;;;;;;5068919;28;20032;-67
2021/10/01 06:36:47;;;;;;;5.03;1.42;;;14.80;99.90;;;;;;5065936;28;20103;-66
2021/10/01 06:39:12;;;;;;;3.50;1.63;;;14.50;99.90;;;;;;5063705;28;20040;-65
2021/10/01 06:41:39;;;;;;;3.90;1.65;;;14.60;99.90;;;;;;5068072;28;20099;-67
2021/10/01 06:44:06;;;;;;;8.57;1.80;;;14.70;99.90;;;;;;5069394;28;20393;-67
2021/10/01 06:46:41;;;;;;;6.15;1.80;;;14.40;99.90;;;;;;5068022;28;20121;-67
2021/10/01 06:49:22;;;;;;;3.85;1.50;;;14.90;99.90;;;;;;5067794;28;20052;-67
2021/10/01 07:29:41;;;;;;;2.70;1.30;;;16.10;99.90;;;;;;5052167;28;20414;-67
2021/10/01 08:20:09;;;;;;;5.47;1.55;;;16.50;99.90;;;;;;5054269;28;20064;-66
2021/10/01 08:22:35;;;;;;;4.35;1.20;;;17.40;99.90;;;;;;5053473;28;20387;-66
2021/10/01 08:25:00;;;;;;;3.63;1.23;;;17.30;99.90;;;;;;5054425;28;20025;-67
2021/10/01 08:27:26;;;;;;;6.65;1.33;;;17.80;99.90;;;;;;5054589;28;20032;-67
2021/10/01 08:29:52;;;;;;;3.05;1.10;;;19.00;99.90;;;;;;5053901;28;20551;-67
2021/10/01 08:32:18;;;;;;;7.28;1.50;;;19.30;99.90;;;;;;5053778;28;20028;-67
2021/10/01 08:34:45;;;;;;;4.43;1.42;;;19.90;99.90;;;;;;5054204;28;20071;-67
2021/10/01 08:37:13;;;;;;;6.32;1.48;;;20.20;99.90;;;;;;5054392;28;20472;-67
2021/10/01 08:39:39;;;;;;;3.60;1.30;;;19.80;99.90;;;;;;5054006;28;20024;-67
2021/10/01 08:42:06;;;;;;;5.47;1.25;;;19.70;99.90;;;;;;5053970;28;20021;-67
2021/10/01 08:44:34;;;;;;;3.67;1.38;;;19.80;99.90;;;;;;5053598;28;20037;-67
2021/10/01 08:47:02;;;;;;;3.92;1.15;;;19.80;99.90;;;;;;5054033;28;20028;-67
2021/10/01 08:49:29;;;;;;;7.63;1.58;;;19.30;99.90;;;;;;5054084;28;20494;-66
2021/10/01 08:51:54;;;;;;;3.95;1.58;;;19.30;99.90;;;;;;5054165;28;20106;-67
2021/10/01 08:54:20;;;;;;;4.63;1.45;;;19.40;99.90;;;;;;5052949;28;20120;-67
2021/10/01 08:56:46;;;;;;;5.53;1.40;;;19.70;99.90;;;;;;5054040;28;20057;-67
2021/10/01 08:59:12;;;;;;;3.25;1.10;;;19.60;99.90;;;;;;5053518;28;20091;-67
2021/10/01 09:01:38;;;;;;;3.53;1.20;;;19.90;99.90;;;;;;5053504;28;20056;-67
2021/10/01 09:04:04;;;;;;;4.75;1.15;;;19.50;99.90;;;;;;5053538;28;20100;-67
2021/10/01 09:06:30;;;;;;;4.72;1.60;;;19.40;99.90;;;;;;5051543;28;20033;-66
2021/10/01 09:09:04;;;;;;;3.83;1.20;;;19.60;99.90;;;;;;5051909;28;20087;-67
2021/10/01 09:11:34;;;;;;;3.88;1.38;;;19.60;99.90;;;;;;5052608;28;20059;-67
2021/10/01 09:14:04;;;;;;;8.32;1.35;;;20.00;99.90;;;;;;5052519;28;20086;-67
2021/10/01 09:16:30;;;;;;;6.80;1.27;;;20.20;99.90;;;;;;5053441;28;20033;-67
2021/10/01 09:18:56;;;;;;;3.15;1.42;;;20.10;99.90;;;;;;5053109;28;20434;-67
2021/10/01 09:21:23;;;;;;;5.78;1.10;;;20.50;99.90;;;;;;5051231;28;20029;-67
2021/10/01 09:24:07;;;;;;;4.97;1.05;;;20.40;99.90;;;;;;5051742;28;20029;-67
2021/10/01 09:26:34;;;;;;;4.07;1.35;;;20.30;99.90;;;;;;5052819;28;20154;-67
2021/10/01 09:29:05;;;;;;;4.40;2.22;;;20.10;99.90;;;;;;5051468;28;20025;-67
2021/10/01 09:31:42;;;;;;;6.53;1.40;;;20.10;99.90;;;;;;5047334;28;20021;-67
2021/10/01 09:34:12;;;;;;;5.07;1.10;;;19.50;99.90;;;;;;5052789;28;20165;-66
2021/10/01 09:36:38;;;;;;;3.88;1.08;;;19.00;99.90;;;;;;5053222;28;20067;-67
2021/10/01 09:39:05;;;;;;;4.95;1.25;;;18.90;99.90;;;;;;5051991;28;20029;-66
2021/10/01 09:41:34;;;;;;;7.30;1.60;;;19.00;99.90;;;;;;5053023;28;20025;-67
2021/10/01 09:44:15;;;;;;;4.65;1.23;;;19.80;99.90;;;;;;5052862;28;20029;-67
2021/10/01 09:46:44;;;;;;;4.63;1.20;;;20.10;99.90;;;;;;5053183;28;20029;-67
2021/10/01 09:49:14;;;;;;;6.00;1.25;;;20.00;99.90;;;;;;5053255;28;20118;-67
2021/10/01 09:51:48;;;;;;;7.60;1.30;;;20.20;99.90;;;;;;5052900;28;20491;-67
2021/10/01 09:54:15;;;;;;;7.32;1.48;;;19.80;99.70;;;;;;5052159;28;20131;-67
2021/10/01 09:56:41;;;;;;;8.02;1.98;;;19.40;99.90;;;;;;5052753;28;20029;-66
2021/10/01 10:02:08;;;;;;;6.78;1.58;;;19.30;99.90;;;;;;5110902;27;20392;-67
2021/10/01 10:04:38;;;;;;;5.25;1.00;;;19.50;99.90;;;;;;5109862;28;20355;-67
2021/10/01 10:07:09;;;;;;;2.60;1.13;;;19.20;99.90;;;;;;5109539;28;20028;-67
2021/10/01 10:09:39;;;;;;;7.03;1.10;;;19.00;99.90;;;;;;5090422;28;20044;-67
2021/10/01 10:12:06;;;;;;;11.73;1.40;;;19.10;99.90;;;;;;5090196;28;20477;-67
2021/10/01 10:14:34;;;;;;;4.57;1.23;;;19.00;99.90;;;;;;5108855;28;20074;-67
2021/10/01 10:17:00;;;;;;;5.35;1.50;;;19.30;99.90;;;;;;5110609;28;20022;-67
2021/10/01 10:19:30;;;;;;;3.58;0.90;;;19.70;99.80;;;;;;5109903;28;20020;-67
2021/10/01 10:21:58;;;;;;;5.80;1.30;;;19.60;99.90;;;;;;5108004;28;20045;-68
2021/10/01 10:24:24;;;;;;;8.93;1.40;;;20.00;99.90;;;;;;5109972;28;20023;-68
2021/10/01 10:26:50;;;;;;;5.22;1.30;;;20.10;99.30;;;;;;5110557;28;20012;-68
2021/10/01 10:29:16;;;;;;;6.85;1.52;;;19.40;99.50;;;;;;5108151;28;20020;-67
2021/10/01 10:31:46;;;;;;;6.97;1.27;;;19.50;99.90;;;;;;5109091;28;20468;-67
2021/10/01 10:34:23;;;;;;;5.03;1.48;;;19.70;99.90;;;;;;5109659;28;20487;-67
2021/10/01 10:36:50;;;;;;;7.50;1.25;;;19.70;99.60;;;;;;5110017;28;20062;-68
2021/10/01 10:42:08;;;;;;;4.68;1.20;;;19.70;99.90;;;;;;5100330;27;20841;-68
2021/10/01 10:44:48;;;;;;;10.80;1.48;;;20.00;98.60;;;;;;5098476;28;20029;-66
2021/10/01 10:47:54;;;;;;;6.45;1.30;;;20.00;98.50;;;;;;5091296;28;20050;-68
2021/10/01 10:50:28;;;;;;;5.05;1.40;;;20.30;97.40;;;;;;5088960;28;20039;-67
2021/10/01 11:01:21;;;;;;;4.20;1.27;;;20.40;97.50;;;;;;5110941;27;20913;-67
2021/10/01 11:03:48;;;;;;;5.55;1.70;;;20.60;96.60;;;;;;5111167;28;20024;-68
2021/10/01 11:06:15;;;;;;;3.30;1.23;;;20.20;96.90;;;;;;5110493;28;20034;-67
2021/10/01 11:08:51;;;;;;;5.75;1.60;;;20.50;97.50;;;;;;5110022;28;20031;-67
2021/10/01 11:14:20;;;;;;;7.82;1.20;;;20.60;95.50;;;;;;5131854;27;20399;-67
2021/10/01 11:19:41;;;;;;;3.10;1.08;;;19.80;97.60;;;;;;5090821;28;20833;-67
2021/10/01 11:22:28;;;;;;;7.20;1.10;;;19.40;96.80;;;;;;5090656;28;20056;-67
2021/10/01 11:25:14;;;;;;;4.03;1.13;;;19.90;98.50;;;;;;5090438;28;20070;-67
2021/10/01 11:27:58;;;;;;;3.85;1.15;;;20.10;96.10;;;;;;5090754;28;20500;-67
2021/10/01 11:30:25;;;;;;;8.05;1.40;;;20.30;95.60;;;;;;5090550;28;20443;-67
2021/10/01 11:32:52;;;;;;;4.05;1.10;;;20.10;95.50;;;;;;5090722;28;20016;-67
2021/10/01 11:35:18;;;;;;;5.28;0.93;;;19.90;96.20;;;;;;5089812;28;20574;-68
2021/10/01 11:37:46;;;;;;;3.95;1.00;;;19.50;96.70;;;;;;5089551;28;20036;-67
2021/10/01 11:40:30;;;;;;;3.40;1.10;;;19.40;97.00;;;;;;5089899;28;20016;-68
2021/10/01 11:42:58;;;;;;;3.85;1.05;;;19.70;96.80;;;;;;5090570;28;20032;-67
2021/10/01 11:45:28;;;;;;;2.00;1.00;;;19.50;97.10;;;;;;5090453;28;20020;-68
2021/10/01 11:48:02;;;;;;;5.47;1.58;;;19.50;96.70;;;;;;5089905;28;20063;-68
2021/10/01 11:50:34;;;;;;;3.30;1.20;;;19.70;96.30;;;;;;5088921;28;20478;-68
2021/10/01 11:53:01;;;;;;;2.45;1.25;;;20.00;95.00;;;;;;5090256;28;20053;-67
2021/10/01 11:55:28;;;;;;;2.03;1.10;;;20.30;95.80;;;;;;5090204;28;20027;-68
2021/10/01 11:57:55;;;;;;;3.78;1.20;;;19.90;93.50;;;;;;5089822;28;20032;-67
2021/10/01 12:00:22;;;;;;;4.38;1.20;;;19.50;93.50;;;;;;5089470;28;20073;-67
2021/10/01 12:02:50;;;;;;;3.28;1.00;;;19.60;93.70;;;;;;5089876;28;20107;-67
2021/10/01 12:05:21;;;;;;;3.55;1.40;;;19.60;94.30;;;;;;5089596;28;20032;-68
2021/10/01 12:07:49;;;;;;;3.63;1.20;;;19.30;95.10;;;;;;5077292;28;20021;-67
2021/10/01 12:10:16;;;;;;;5.55;0.98;;;19.30;94.50;;;;;;5088614;28;20408;-67
2021/10/01 12:13:06;;;;;;;2.35;0.90;;;19.60;94.60;;;;;;5088984;28;20033;-67
2021/10/01 12:15:56;;;;;;;2.80;0.98;;;19.80;93.40;;;;;;5088846;28;20029;-68
2021/10/01 12:18:35;;;;;;;4.00;1.17;;;19.90;93.40;;;;;;5087320;28;20047;-67
2021/10/01 12:21:04;;;;;;;1.20;0.90;;;20.10;93.50;;;;;;5089217;28;20471;-68
2021/10/01 12:23:35;;;;;;;4.50;1.02;;;20.10;93.60;;;;;;5088478;28;20028;-67
2021/10/01 12:26:29;;;;;;;1.83;0.80;;;20.10;93.70;;;;;;5087409;28;20124;-67
2021/10/01 12:29:17;;;;;;;4.72;1.20;;;20.20;92.80;;;;;;5083998;28;20085;-67
2021/10/01 12:32:00;;;;;;;4.57;1.08;;;20.10;93.70;;;;;;5076160;28;20021;-67
2021/10/01 12:34:28;;;;;;;;;;;19.90;93.70;;;;;;5076315;28;20029;-67
2021/10/01 12:37:05;;;;;;;2.05;1.08;;;19.80;94.40;;;;;;5075683;28;19905;-67
2021/10/01 12:39:32;;;;;;;5.57;1.00;;;19.60;92.30;;;;;;5075075;28;20029;-67
2021/10/01 12:42:00;;;;;;;3.05;0.95;;;19.50;92.70;;;;;;5075752;28;20055;-67
2021/10/01 12:44:27;;;;;;;4.85;0.90;;;19.40;92.70;;;;;;5075756;28;20032;-67
2021/10/01 12:46:56;;;;;;;4.47;1.02;;;19.30;93.50;;;;;;5075751;28;20024;-67
2021/10/01 12:52:10;;;;;;;5.53;1.05;;;19.30;93.80;;;;;;5110743;27;20434;-67
2021/10/01 12:54:45;;;;;;;4.30;1.10;;;19.30;94.20;;;;;;5110909;28;20027;-67
2021/10/01 12:57:15;;;;;;;5.45;0.93;;;19.30;93.80;;;;;;5111217;28;20020;-67
2021/10/01 12:59:44;;;;;;;3.67;1.15;;;19.40;93.10;;;;;;5109814;28;20432;-67
2021/10/01 13:02:13;;;;;;;3.60;1.42;;;19.30;93.10;;;;;;5109158;28;20023;-67
2021/10/01 13:04:49;;;;;;;5.35;1.40;;;19.50;93.00;;;;;;5110113;28;20019;-68
2021/10/01 13:10:17;;;;;;;4.43;1.00;;;19.50;92.40;;;;;;5091004;28;20348;-67
2021/10/01 13:21:12;;;;;;;2.05;1.00;;;19.30;92.70;;;;;;5091253;28;20348;-67
2021/10/01 13:29:00;;;;;;;4.10;1.42;;;19.00;92.70;;;;;;5090786;28;20421;-67
2021/10/01 13:31:26;;;;;;;5.65;1.00;;;18.90;92.70;;;;;;5090683;28;20389;-67
2021/10/01 13:33:54;;;;;;;2.58;1.08;;;18.80;93.30;;;;;;5090494;28;20032;-68
2021/10/01 13:36:19;;;;;;;2.13;1.02;;;19.00;93.40;;;;;;5090629;28;20111;-68
2021/10/01 13:38:46;;;;;;;2.35;1.10;;;19.00;93.40;;;;;;5090510;28;20493;-68
2021/10/01 13:41:14;;;;;;;4.90;0.98;;;19.00;95.10;;;;;;5090461;28;20021;-66
2021/10/01 13:43:41;;;;;;;4.35;1.13;;;19.00;95.00;;;;;;5090778;28;20115;-67
2021/10/01 13:46:09;;;;;;;4.53;0.80;;;19.00;94.60;;;;;;5090222;28;20029;-67
2021/10/01 13:48:36;;;;;;;4.20;0.98;;;19.00;95.90;;;;;;5090419;28;20024;-67
2021/10/01 13:51:02;;;;;;;4.68;1.13;;;19.00;94.60;;;;;;5090169;28;20020;-66
2021/10/01 13:53:27;;;;;;;4.97;1.00;;;18.80;95.30;;;;;;5090341;28;20017;-67
2021/10/01 13:55:54;;;;;;;3.20;1.40;;;18.80;95.40;;;;;;5091068;28;20020;-66
2021/10/01 13:58:20;;;;;;;4.53;1.17;;;18.90;95.60;;;;;;5091017;28;20347;-66
2021/10/01 14:00:46;;;;;;;3.40;1.10;;;19.00;96.60;;;;;;5090662;28;20034;-67
2021/10/01 14:03:13;;;;;;;2.85;1.33;;;19.00;96.70;;;;;;5090916;28;20044;-67
2021/10/01 14:05:39;;;;;;;5.53;2.85;;;19.00;96.10;;;;;;5090367;28;20486;-67
2021/10/01 14:08:05;;;;;;;4.30;1.30;;;18.90;95.90;;;;;;5090737;28;20115;-67
2021/10/01 14:10:34;;;;;;;4.20;1.40;;;18.90;96.30;;;;;;5090856;28;20012;-67
2021/10/01 14:13:01;;;;;;;3.15;1.75;;;18.90;96.20;;;;;;5089418;28;20024;-67
2021/10/01 14:15:29;;;;;;;4.07;1.40;;;19.00;97.40;;;;;;5090498;28;20069;-67
2021/10/01 14:17:57;;;;;;;3.30;1.30;;;19.00;97.10;;;;;;5088905;28;20028;-67
2021/10/01 14:20:25;;;;;;;3.17;1.13;;;19.10;97.50;;;;;;5090700;28;20090;-66
2021/10/01 14:22:51;;;;;;;2.88;1.20;;;19.10;97.50;;;;;;5088860;28;20025;-67
2021/10/01 14:25:20;;;;;;;3.85;1.30;;;19.10;97.30;;;;;;5090291;28;20111;-67
2021/10/01 14:27:46;;;;;;;3.65;1.17;;;19.10;96.80;;;;;;5088412;28;20048;-66
2021/10/01 14:30:16;;;;;;;3.78;1.48;;;19.10;97.10;;;;;;5089349;28;20042;-68
2021/10/01 14:32:42;;;;;;;4.90;1.50;;;19.20;97.10;;;;;;5090164;28;20056;-66
2021/10/01 14:35:10;;;;;;;3.13;1.27;;;19.20;96.80;;;;;;5089404;28;20050;-67
2021/10/01 14:37:36;;;;;;;3.63;1.58;;;19.20;96.70;;;;;;5090084;28;20024;-67
2021/10/01 14:40:05;;;;;;;4.07;1.17;;;19.30;97.60;;;;;;5077683;28;20028;-67
2021/10/01 14:42:30;;;;;;;5.63;1.70;;;19.40;97.10;;;;;;5076153;28;20479;-67
2021/10/01 14:44:56;;;;;;;4.28;1.27;;;19.30;97.20;;;;;;5076695;28;20106;-67
2021/10/01 14:47:21;;;;;;;2.13;1.20;;;19.30;96.30;;;;;;5076590;28;20028;-67
2021/10/01 14:49:47;;;;;;;2.25;1.10;;;19.30;97.10;;;;;;5076556;28;20021;-66
2021/10/01 14:52:14;;;;;;;1.38;1.00;;;19.10;95.30;;;;;;5075151;28;20036;-67
2021/10/01 14:54:41;;;;;;;2.72;1.02;;;19.00;95.70;;;;;;5076236;28;20031;-67
2021/10/01 14:57:07;;;;;;;6.20;1.27;;;19.00;96.60;;;;;;5076433;28;20074;-67
2021/10/01 14:59:33;;;;;;;4.05;1.15;;;18.80;96.60;;;;;;5076441;28;20029;-67
2021/10/01 15:01:58;;;;;;;5.03;1.20;;;18.80;97.30;;;;;;5076368;28;20390;-67
2021/10/01 15:04:24;;;;;;;3.17;1.20;;;18.80;97.30;;;;;;5075041;28;20031;-67
2021/10/01 15:06:49;;;;;;;2.85;0.90;;;18.80;97.40;;;;;;5076191;28;20099;-67